sensor_id;sensor_type;location;lat;lon;timestamp;noise_LAeq;noise_LA_min;noise_LA_max;noise_LA01;noise_LA95
61249;Laerm;47119;49.130;9.218;2023-03-01T00:00:23;45.42;30.39;64.42;;
61249;Laerm;47119;49.130;9.218;2023-03-01T00:02:51;38.44;31.58;49.77;;
61249;Laerm;47119;49.130;9.218;2023-03-01T00:05:21;42.38;31.81;60.02;;
61249;Laerm;47119;49.130;9.218;2023-03-01T00:07:53;37.13;30.58;47.73;;
61249;Laerm;47119;49.130;9.218;2023-03-01T00:10:20;39.08;31.87;52.18;;
61249;Laerm;47119;49.130;9.218;2023-03-01T00:12:50;47.34;31.86;65.66;;
61249;Laerm;47119;49.130;9.218;2023-03-01T00:15:18;43.00;31.32;57.85;;
61249;Laerm;47119;49.130;9.218;2023-03-01T00:17:46;37.02;30.79;47.65;;
61249;Laerm;47119;49.130;9.218;2023-03-01T00:20:14;52.48;32.18;69.13;;
61249;Laerm;47119;49.130;9.218;2023-03-01T00:22:43;38.55;31.37;50.82;;
61249;Laerm;47119;49.130;9.218;2023-03-01T00:25:11;36.90;31.29;48.27;;
61249;Laerm;47119;49.130;9.218;2023-03-01T00:27:41;37.44;31.37;47.28;;
61249;Laerm;47119;49.130;9.218;2023-03-01T00:30:11;50.80;32.95;68.08;;
61249;Laerm;47119;49.130;9.218;2023-03-01T00:32:41;37.10;30.47;48.84;;
61249;Laerm;47119;49.130;9.218;2023-03-01T00:35:11;39.40;30.89;51.79;;
61249;Laerm;47119;49.130;9.218;2023-03-01T00:37:39;37.75;31.05;55.98;;
61249;Laerm;47119;49.130;9.218;2023-03-01T00:40:11;41.71;31.89;57.58;;
61249;Laerm;47119;49.130;9.218;2023-03-01T00:42:47;36.71;31.10;50.98;;
61249;Laerm;47119;49.130;9.218;2023-03-01T00:45:18;35.01;30.82;43.87;;
61249;Laerm;47119;49.130;9.218;2023-03-01T00:47:45;44.85;31.47;62.45;;
61249;Laerm;47119;49.130;9.218;2023-03-01T00:50:13;38.34;30.97;50.15;;
61249;Laerm;47119;49.130;9.218;2023-03-01T00:52:46;39.30;31.45;56.79;;
61249;Laerm;47119;49.130;9.218;2023-03-01T00:55:16;37.01;32.32;49.45;;
61249;Laerm;47119;49.130;9.218;2023-03-01T00:58:00;37.98;32.50;54.39;;
61249;Laerm;47119;49.130;9.218;2023-03-01T01:00:57;38.76;31.92;51.16;;
61249;Laerm;47119;49.130;9.218;2023-03-01T01:03:54;44.46;32.23;73.48;;
61249;Laerm;47119;49.130;9.218;2023-03-01T01:06:29;40.34;31.67;61.06;;
61249;Laerm;47119;49.130;9.218;2023-03-01T01:09:12;42.77;31.94;56.88;;
61249;Laerm;47119;49.130;9.218;2023-03-01T01:12:42;39.02;32.31;54.47;;
61249;Laerm;47119;49.130;9.218;2023-03-01T01:15:46;40.35;31.60;61.03;;
61249;Laerm;47119;49.130;9.218;2023-03-01T01:21:07;49.19;32.23;68.62;;
61249;Laerm;47119;49.130;9.218;2023-03-01T01:23:53;38.27;31.79;50.53;;
61249;Laerm;47119;49.130;9.218;2023-03-01T01:26:29;36.18;31.71;47.73;;
61249;Laerm;47119;49.130;9.218;2023-03-01T01:29:00;46.81;33.08;64.09;;
61249;Laerm;47119;49.130;9.218;2023-03-01T01:31:40;35.85;31.62;47.74;;
61249;Laerm;47119;49.130;9.218;2023-03-01T01:34:18;43.60;31.94;62.21;;
61249;Laerm;47119;49.130;9.218;2023-03-01T01:36:53;36.19;31.48;54.21;;
61249;Laerm;47119;49.130;9.218;2023-03-01T01:39:37;38.19;31.67;51.11;;
61249;Laerm;47119;49.130;9.218;2023-03-01T01:42:08;35.99;31.71;51.51;;
61249;Laerm;47119;49.130;9.218;2023-03-01T01:45:36;37.80;31.72;51.60;;
61249;Laerm;47119;49.130;9.218;2023-03-01T01:48:23;36.84;32.18;48.08;;
61249;Laerm;47119;49.130;9.218;2023-03-01T01:51:25;38.65;32.17;58.45;;
61249;Laerm;47119;49.130;9.218;2023-03-01T01:54:42;36.80;31.50;51.43;;
61249;Laerm;47119;49.130;9.218;2023-03-01T01:58:05;45.27;31.75;62.76;;
61249;Laerm;47119;49.130;9.218;2023-03-01T02:01:09;39.81;31.69;53.55;;
61249;Laerm;47119;49.130;9.218;2023-03-01T02:04:20;35.85;31.20;46.15;;
61249;Laerm;47119;49.130;9.218;2023-03-01T02:07:13;37.86;31.20;51.74;;
61249;Laerm;47119;49.130;9.218;2023-03-01T02:09:52;37.16;31.05;48.31;;
61249;Laerm;47119;49.130;9.218;2023-03-01T02:12:27;36.33;31.26;46.41;;
61249;Laerm;47119;49.130;9.218;2023-03-01T02:15:18;36.38;31.09;48.47;;
61249;Laerm;47119;49.130;9.218;2023-03-01T02:17:55;36.25;30.76;55.11;;
61249;Laerm;47119;49.130;9.218;2023-03-01T02:20:36;37.87;32.29;46.73;;
61249;Laerm;47119;49.130;9.218;2023-03-01T02:23:18;35.74;31.83;43.49;;
61249;Laerm;47119;49.130;9.218;2023-03-01T02:26:06;38.38;31.21;50.92;;
61249;Laerm;47119;49.130;9.218;2023-03-01T02:28:43;35.70;31.46;45.52;;
61249;Laerm;47119;49.130;9.218;2023-03-01T02:31:19;35.97;31.48;42.94;;
61249;Laerm;47119;49.130;9.218;2023-03-01T02:34:12;37.25;31.36;47.42;;
61249;Laerm;47119;49.130;9.218;2023-03-01T02:36:47;38.25;31.42;54.89;;
61249;Laerm;47119;49.130;9.218;2023-03-01T02:39:23;37.49;31.03;50.64;;
61249;Laerm;47119;49.130;9.218;2023-03-01T02:41:55;38.00;31.78;48.54;;
61249;Laerm;47119;49.130;9.218;2023-03-01T02:44:26;44.17;31.77;63.97;;
61249;Laerm;47119;49.130;9.218;2023-03-01T02:50:47;37.64;31.94;47.60;;
61249;Laerm;47119;49.130;9.218;2023-03-01T02:53:27;40.94;31.35;54.22;;
61249;Laerm;47119;49.130;9.218;2023-03-01T02:55:58;40.65;30.87;61.59;;
61249;Laerm;47119;49.130;9.218;2023-03-01T02:58:41;37.86;30.46;47.12;;
61249;Laerm;47119;49.130;9.218;2023-03-01T03:01:37;37.48;31.32;53.06;;
61249;Laerm;47119;49.130;9.218;2023-03-01T03:04:37;35.92;31.42;47.54;;
61249;Laerm;47119;49.130;9.218;2023-03-01T03:07:07;44.24;31.17;63.12;;
61249;Laerm;47119;49.130;9.218;2023-03-01T03:09:59;42.44;31.87;60.54;;
61249;Laerm;47119;49.130;9.218;2023-03-01T03:13:04;39.82;32.72;49.84;;
61249;Laerm;47119;49.130;9.218;2023-03-01T03:16:22;36.71;31.30;47.11;;
61249;Laerm;47119;49.130;9.218;2023-03-01T03:19:36;39.74;32.11;50.29;;
61249;Laerm;47119;49.130;9.218;2023-03-01T03:22:39;41.11;31.45;54.31;;
61249;Laerm;47119;49.130;9.218;2023-03-01T03:25:37;37.82;32.45;47.48;;
61249;Laerm;47119;49.130;9.218;2023-03-01T03:28:09;39.09;32.27;50.57;;
61249;Laerm;47119;49.130;9.218;2023-03-01T03:30:45;38.31;32.68;46.30;;
61249;Laerm;47119;49.130;9.218;2023-03-01T03:33:32;40.63;33.17;53.42;;
61249;Laerm;47119;49.130;9.218;2023-03-01T03:36:02;45.86;33.51;60.46;;
61249;Laerm;47119;49.130;9.218;2023-03-01T03:38:39;39.66;33.06;49.90;;
61249;Laerm;47119;49.130;9.218;2023-03-01T03:41:16;38.43;32.90;48.75;;
61249;Laerm;47119;49.130;9.218;2023-03-01T03:43:59;44.50;33.64;62.22;;
61249;Laerm;47119;49.130;9.218;2023-03-01T03:46:38;43.52;34.24;56.13;;
61249;Laerm;47119;49.130;9.218;2023-03-01T03:49:11;39.74;34.06;50.70;;
61249;Laerm;47119;49.130;9.218;2023-03-01T03:52:03;41.06;34.44;51.11;;
61249;Laerm;47119;49.130;9.218;2023-03-01T03:54:48;44.73;34.18;60.42;;
61249;Laerm;47119;49.130;9.218;2023-03-01T03:57:15;42.45;34.06;53.28;;
61249;Laerm;47119;49.130;9.218;2023-03-01T03:59:43;47.92;34.20;64.70;;
61249;Laerm;47119;49.130;9.218;2023-03-01T04:02:10;42.37;34.83;50.17;;
61249;Laerm;47119;49.130;9.218;2023-03-01T04:04:37;45.86;34.22;60.71;;
61249;Laerm;47119;49.130;9.218;2023-03-01T04:07:06;49.29;37.84;63.53;;
61249;Laerm;47119;49.130;9.218;2023-03-01T04:09:40;43.74;35.50;53.94;;
61249;Laerm;47119;49.130;9.218;2023-03-01T04:12:16;46.68;35.01;59.51;;
61249;Laerm;47119;49.130;9.218;2023-03-01T04:14:53;49.15;35.05;64.64;;
61249;Laerm;47119;49.130;9.218;2023-03-01T04:19:05;46.95;36.46;62.98;;
61249;Laerm;47119;49.130;9.218;2023-03-01T04:21:27;46.71;36.16;62.05;;
61249;Laerm;47119;49.130;9.218;2023-03-01T04:23:56;46.67;36.03;60.77;;
61249;Laerm;47119;49.130;9.218;2023-03-01T04:26:23;47.29;35.83;57.96;;
61249;Laerm;47119;49.130;9.218;2023-03-01T04:28:59;48.67;35.58;64.59;;
61249;Laerm;47119;49.130;9.218;2023-03-01T04:31:27;51.63;36.80;65.90;;
61249;Laerm;47119;49.130;9.218;2023-03-01T04:33:56;48.94;39.34;63.71;;
61249;Laerm;47119;49.130;9.218;2023-03-01T04:36:28;46.45;36.26;64.64;;
61249;Laerm;47119;49.130;9.218;2023-03-01T04:39:08;47.09;36.34;63.93;;
61249;Laerm;47119;49.130;9.218;2023-03-01T04:41:47;53.95;37.60;69.48;;
61249;Laerm;47119;49.130;9.218;2023-03-01T04:44:34;44.78;36.14;53.76;;
61249;Laerm;47119;49.130;9.218;2023-03-01T04:47:55;51.35;36.75;68.45;;
61249;Laerm;47119;49.130;9.218;2023-03-01T04:50:50;48.65;36.96;68.24;;
61249;Laerm;47119;49.130;9.218;2023-03-01T04:53:33;54.06;39.26;69.78;;
61249;Laerm;47119;49.130;9.218;2023-03-01T04:56:08;48.49;38.28;68.01;;
61249;Laerm;47119;49.130;9.218;2023-03-01T04:58:54;56.17;39.67;73.19;;
61249;Laerm;47119;49.130;9.218;2023-03-01T05:05:49;47.54;36.47;62.65;;
61249;Laerm;47119;49.130;9.218;2023-03-01T05:09:24;46.61;37.91;55.27;;
61249;Laerm;47119;49.130;9.218;2023-03-01T05:12:27;52.47;40.08;65.83;;
61249;Laerm;47119;49.130;9.218;2023-03-01T05:15:55;56.99;39.15;72.16;;
61249;Laerm;47119;49.130;9.218;2023-03-01T05:18:52;50.66;41.10;66.05;;
61249;Laerm;47119;49.130;9.218;2023-03-01T05:21:28;53.97;40.31;70.61;;
61249;Laerm;47119;49.130;9.218;2023-03-01T05:24:11;49.95;38.01;63.05;;
61249;Laerm;47119;49.130;9.218;2023-03-01T05:26:58;54.10;41.34;75.24;;
61249;Laerm;47119;49.130;9.218;2023-03-01T05:29:37;53.57;43.15;66.20;;
61249;Laerm;47119;49.130;9.218;2023-03-01T05:32:10;52.03;41.64;65.18;;
61249;Laerm;47119;49.130;9.218;2023-03-01T05:34:49;54.10;41.54;66.78;;
61249;Laerm;47119;49.130;9.218;2023-03-01T05:37:39;54.41;41.81;67.09;;
61249;Laerm;47119;49.130;9.218;2023-03-01T05:40:23;56.40;38.48;69.11;;
61249;Laerm;47119;49.130;9.218;2023-03-01T05:46:03;53.13;43.14;67.40;;
61249;Laerm;47119;49.130;9.218;2023-03-01T05:48:30;53.40;39.78;69.39;;
61249;Laerm;47119;49.130;9.218;2023-03-01T05:51:00;50.96;40.35;68.65;;
61249;Laerm;47119;49.130;9.218;2023-03-01T05:53:29;55.39;43.18;66.27;;
61249;Laerm;47119;49.130;9.218;2023-03-01T05:55:58;49.24;40.67;62.37;;
61249;Laerm;47119;49.130;9.218;2023-03-01T05:58:27;54.05;40.91;66.66;;
61249;Laerm;47119;49.130;9.218;2023-03-01T06:00:54;55.52;42.19;70.74;;
61249;Laerm;47119;49.130;9.218;2023-03-01T06:03:23;55.51;45.42;65.79;;
61249;Laerm;47119;49.130;9.218;2023-03-01T06:05:56;54.46;42.30;67.38;;
61249;Laerm;47119;49.130;9.218;2023-03-01T06:08:25;53.46;42.12;66.11;;
61249;Laerm;47119;49.130;9.218;2023-03-01T06:10:52;52.82;42.41;63.20;;
61249;Laerm;47119;49.130;9.218;2023-03-01T06:13:22;54.03;42.80;66.44;;
61249;Laerm;47119;49.130;9.218;2023-03-01T06:15:50;53.17;43.08;65.49;;
61249;Laerm;47119;49.130;9.218;2023-03-01T06:18:23;55.83;41.34;68.93;;
61249;Laerm;47119;49.130;9.218;2023-03-01T06:20:54;55.31;46.07;66.55;;
61249;Laerm;47119;49.130;9.218;2023-03-01T06:23:21;55.00;43.33;67.53;;
61249;Laerm;47119;49.130;9.218;2023-03-01T06:25:50;54.18;44.81;76.20;;
61249;Laerm;47119;49.130;9.218;2023-03-01T06:28:17;50.78;41.91;62.23;;
61249;Laerm;47119;49.130;9.218;2023-03-01T06:30:44;53.18;42.35;66.20;;
61249;Laerm;47119;49.130;9.218;2023-03-01T06:33:14;57.35;42.69;75.64;;
61249;Laerm;47119;49.130;9.218;2023-03-01T06:35:44;55.13;43.47;66.58;;
61249;Laerm;47119;49.130;9.218;2023-03-01T06:38:12;53.16;42.11;64.29;;
61249;Laerm;47119;49.130;9.218;2023-03-01T06:40:42;54.93;45.20;71.19;;
61249;Laerm;47119;49.130;9.218;2023-03-01T06:43:09;56.28;48.22;66.27;;
61249;Laerm;47119;49.130;9.218;2023-03-01T06:45:37;55.37;45.84;66.66;;
61249;Laerm;47119;49.130;9.218;2023-03-01T06:48:05;56.24;45.85;66.72;;
61249;Laerm;47119;49.130;9.218;2023-03-01T06:50:33;59.06;46.26;83.06;;
61249;Laerm;47119;49.130;9.218;2023-03-01T06:53:02;56.13;44.98;69.41;;
61249;Laerm;47119;49.130;9.218;2023-03-01T06:55:32;55.70;47.37;69.12;;
61249;Laerm;47119;49.130;9.218;2023-03-01T06:58:02;56.27;46.19;69.01;;
61249;Laerm;47119;49.130;9.218;2023-03-01T07:00:32;54.54;45.96;64.64;;
61249;Laerm;47119;49.130;9.218;2023-03-01T07:03:02;55.60;44.60;69.03;;
61249;Laerm;47119;49.130;9.218;2023-03-01T07:05:29;55.13;42.28;68.47;;
61249;Laerm;47119;49.130;9.218;2023-03-01T07:07:58;54.86;45.21;68.65;;
61249;Laerm;47119;49.130;9.218;2023-03-01T07:10:28;52.78;42.00;67.95;;
61249;Laerm;47119;49.130;9.218;2023-03-01T07:12:58;54.46;43.00;67.26;;
61249;Laerm;47119;49.130;9.218;2023-03-01T07:15:28;54.74;44.97;69.22;;
61249;Laerm;47119;49.130;9.218;2023-03-01T07:17:57;54.62;44.60;64.94;;
61249;Laerm;47119;49.130;9.218;2023-03-01T07:20:26;51.67;45.08;61.84;;
61249;Laerm;47119;49.130;9.218;2023-03-01T07:22:54;54.43;43.03;67.47;;
61249;Laerm;47119;49.130;9.218;2023-03-01T07:25:24;52.07;44.03;63.26;;
61249;Laerm;47119;49.130;9.218;2023-03-01T07:27:53;56.02;46.50;64.87;;
61249;Laerm;47119;49.130;9.218;2023-03-01T07:30:21;53.46;45.36;65.70;;
61249;Laerm;47119;49.130;9.218;2023-03-01T07:32:54;53.52;43.32;64.76;;
61249;Laerm;47119;49.130;9.218;2023-03-01T07:35:21;53.57;43.91;63.57;;
61249;Laerm;47119;49.130;9.218;2023-03-01T07:37:53;55.58;43.82;70.49;;
61249;Laerm;47119;49.130;9.218;2023-03-01T07:40:23;54.16;44.26;64.67;;
61249;Laerm;47119;49.130;9.218;2023-03-01T07:42:56;59.35;45.91;75.06;;
61249;Laerm;47119;49.130;9.218;2023-03-01T07:45:26;52.29;43.17;67.00;;
61249;Laerm;47119;49.130;9.218;2023-03-01T07:47:55;54.27;44.41;64.95;;
61249;Laerm;47119;49.130;9.218;2023-03-01T07:50:23;57.73;44.30;71.24;;
61249;Laerm;47119;49.130;9.218;2023-03-01T07:52:54;57.34;47.03;74.39;;
61249;Laerm;47119;49.130;9.218;2023-03-01T07:55:21;56.49;44.75;70.37;;
61249;Laerm;47119;49.130;9.218;2023-03-01T07:57:48;54.78;43.62;64.49;;
61249;Laerm;47119;49.130;9.218;2023-03-01T08:00:20;54.56;44.98;68.05;;
61249;Laerm;47119;49.130;9.218;2023-03-01T08:02:49;54.52;43.41;66.92;;
61249;Laerm;47119;49.130;9.218;2023-03-01T08:05:16;54.66;43.76;63.08;;
61249;Laerm;47119;49.130;9.218;2023-03-01T08:07:43;53.40;43.46;65.32;;
61249;Laerm;47119;49.130;9.218;2023-03-01T08:10:13;52.01;41.98;62.39;;
61249;Laerm;47119;49.130;9.218;2023-03-01T08:12:40;54.23;44.44;65.26;;
61249;Laerm;47119;49.130;9.218;2023-03-01T08:15:08;52.72;45.84;66.92;;
61249;Laerm;47119;49.130;9.218;2023-03-01T08:17:37;53.91;43.64;68.35;;
61249;Laerm;47119;49.130;9.218;2023-03-01T08:20:07;56.91;40.59;70.07;;
61249;Laerm;47119;49.130;9.218;2023-03-01T08:22:40;54.98;42.86;68.94;;
61249;Laerm;47119;49.130;9.218;2023-03-01T08:25:07;54.67;40.37;70.95;;
61249;Laerm;47119;49.130;9.218;2023-03-01T08:27:35;51.30;43.17;62.44;;
61249;Laerm;47119;49.130;9.218;2023-03-01T08:30:06;53.21;41.89;63.09;;
61249;Laerm;47119;49.130;9.218;2023-03-01T08:32:39;52.75;40.98;67.74;;
61249;Laerm;47119;49.130;9.218;2023-03-01T08:35:09;57.82;48.10;78.89;;
61249;Laerm;47119;49.130;9.218;2023-03-01T08:37:36;54.50;45.31;66.34;;
61249;Laerm;47119;49.130;9.218;2023-03-01T08:40:04;52.95;46.39;66.36;;
61249;Laerm;47119;49.130;9.218;2023-03-01T08:42:33;51.53;42.31;64.16;;
61249;Laerm;47119;49.130;9.218;2023-03-01T08:45:05;58.11;45.95;72.96;;
61249;Laerm;47119;49.130;9.218;2023-03-01T08:47:39;55.39;42.23;68.47;;
61249;Laerm;47119;49.130;9.218;2023-03-01T08:50:09;53.63;44.54;64.46;;
61249;Laerm;47119;49.130;9.218;2023-03-01T08:52:36;52.41;43.66;65.58;;
61249;Laerm;47119;49.130;9.218;2023-03-01T08:55:07;59.55;44.50;72.75;;
61249;Laerm;47119;49.130;9.218;2023-03-01T08:57:34;51.28;42.89;65.63;;
61249;Laerm;47119;49.130;9.218;2023-03-01T09:00:02;53.46;42.63;63.55;;
61249;Laerm;47119;49.130;9.218;2023-03-01T09:02:33;54.74;44.00;67.39;;
61249;Laerm;47119;49.130;9.218;2023-03-01T09:05:02;51.35;42.08;60.98;;
61249;Laerm;47119;49.130;9.218;2023-03-01T09:07:29;60.54;43.74;74.69;;
61249;Laerm;47119;49.130;9.218;2023-03-01T09:09:58;55.13;44.53;76.82;;
61249;Laerm;47119;49.130;9.218;2023-03-01T09:12:30;53.80;42.92;67.35;;
61249;Laerm;47119;49.130;9.218;2023-03-01T09:14:59;54.36;42.23;67.40;;
61249;Laerm;47119;49.130;9.218;2023-03-01T09:17:28;53.43;42.79;66.54;;
61249;Laerm;47119;49.130;9.218;2023-03-01T09:19:57;54.91;43.43;68.37;;
61249;Laerm;47119;49.130;9.218;2023-03-01T09:22:28;53.47;42.69;66.81;;
61249;Laerm;47119;49.130;9.218;2023-03-01T09:24:57;52.51;40.84;69.94;;
61249;Laerm;47119;49.130;9.218;2023-03-01T09:27:24;52.56;43.25;66.10;;
61249;Laerm;47119;49.130;9.218;2023-03-01T09:29:53;53.58;43.55;66.66;;
61249;Laerm;47119;49.130;9.218;2023-03-01T09:32:24;53.34;43.46;66.16;;
61249;Laerm;47119;49.130;9.218;2023-03-01T09:34:51;53.44;43.09;72.94;;
61249;Laerm;47119;49.130;9.218;2023-03-01T09:37:37;54.19;44.09;65.35;;
61249;Laerm;47119;49.130;9.218;2023-03-01T09:40:12;54.24;44.34;70.42;;
61249;Laerm;47119;49.130;9.218;2023-03-01T09:42:51;52.98;42.50;64.81;;
61249;Laerm;47119;49.130;9.218;2023-03-01T09:45:33;53.58;41.28;66.00;;
61249;Laerm;47119;49.130;9.218;2023-03-01T09:48:06;53.62;44.54;65.90;;
61249;Laerm;47119;49.130;9.218;2023-03-01T09:50:44;52.62;41.91;65.96;;
61249;Laerm;47119;49.130;9.218;2023-03-01T09:53:18;52.46;42.91;69.01;;
61249;Laerm;47119;49.130;9.218;2023-03-01T09:55:58;55.49;42.81;75.30;;
61249;Laerm;47119;49.130;9.218;2023-03-01T09:58:38;58.12;45.60;77.91;;
61249;Laerm;47119;49.130;9.218;2023-03-01T10:01:29;58.79;43.77;76.27;;
61249;Laerm;47119;49.130;9.218;2023-03-01T10:04:28;53.43;41.73;65.91;;
61249;Laerm;47119;49.130;9.218;2023-03-01T10:07:25;56.72;43.90;73.03;;
61249;Laerm;47119;49.130;9.218;2023-03-01T10:09:58;53.47;44.36;67.61;;
61249;Laerm;47119;49.130;9.218;2023-03-01T10:12:34;54.68;44.42;69.32;;
61249;Laerm;47119;49.130;9.218;2023-03-01T10:15:08;51.25;42.76;63.64;;
61249;Laerm;47119;49.130;9.218;2023-03-01T10:17:43;54.06;43.10;69.39;;
61249;Laerm;47119;49.130;9.218;2023-03-01T10:20:20;54.11;42.01;70.51;;
61249;Laerm;47119;49.130;9.218;2023-03-01T10:22:52;52.29;42.41;61.74;;
61249;Laerm;47119;49.130;9.218;2023-03-01T10:25:47;52.33;41.58;63.08;;
61249;Laerm;47119;49.130;9.218;2023-03-01T10:28:26;55.17;43.06;68.29;;
61249;Laerm;47119;49.130;9.218;2023-03-01T10:30:57;53.27;41.11;72.31;;
61249;Laerm;47119;49.130;9.218;2023-03-01T10:33:31;52.43;39.40;66.96;;
61249;Laerm;47119;49.130;9.218;2023-03-01T10:35:58;55.17;40.24;74.06;;
61249;Laerm;47119;49.130;9.218;2023-03-01T10:39:10;55.40;46.56;65.91;;
61249;Laerm;47119;49.130;9.218;2023-03-01T10:41:59;55.96;44.54;70.20;;
61249;Laerm;47119;49.130;9.218;2023-03-01T10:44:43;52.80;44.43;62.10;;
61249;Laerm;47119;49.130;9.218;2023-03-01T10:47:23;55.15;44.27;67.27;;
61249;Laerm;47119;49.130;9.218;2023-03-01T10:50:04;54.09;42.55;65.32;;
61249;Laerm;47119;49.130;9.218;2023-03-01T10:53:22;54.62;42.55;67.06;;
61249;Laerm;47119;49.130;9.218;2023-03-01T10:56:50;54.29;42.98;68.26;;
61249;Laerm;47119;49.130;9.218;2023-03-01T10:59:27;53.35;42.44;63.23;;
61249;Laerm;47119;49.130;9.218;2023-03-01T11:02:18;53.20;40.83;64.64;;
61249;Laerm;47119;49.130;9.218;2023-03-01T11:04:58;55.28;45.72;63.67;;
61249;Laerm;47119;49.130;9.218;2023-03-01T11:07:28;55.93;46.60;69.06;;
61249;Laerm;47119;49.130;9.218;2023-03-01T11:10:17;52.42;42.10;65.05;;
61249;Laerm;47119;49.130;9.218;2023-03-01T11:12:44;55.38;45.08;77.67;;
61249;Laerm;47119;49.130;9.218;2023-03-01T11:15:27;54.80;45.18;65.67;;
61249;Laerm;47119;49.130;9.218;2023-03-01T11:17:57;53.35;44.01;66.96;;
61249;Laerm;47119;49.130;9.218;2023-03-01T11:20:32;54.84;45.30;64.14;;
61249;Laerm;47119;49.130;9.218;2023-03-01T11:23:10;54.01;47.11;69.93;;
61249;Laerm;47119;49.130;9.218;2023-03-01T11:25:42;58.29;43.32;71.33;;
61249;Laerm;47119;49.130;9.218;2023-03-01T11:28:16;54.73;43.31;69.23;;
61249;Laerm;47119;49.130;9.218;2023-03-01T11:30:55;53.83;44.84;71.36;;
61249;Laerm;47119;49.130;9.218;2023-03-01T11:33:39;56.72;42.42;75.59;;
61249;Laerm;47119;49.130;9.218;2023-03-01T11:36:19;53.81;41.84;65.05;;
61249;Laerm;47119;49.130;9.218;2023-03-01T11:38:53;54.02;45.89;63.18;;
61249;Laerm;47119;49.130;9.218;2023-03-01T11:41:29;53.36;43.34;63.05;;
61249;Laerm;47119;49.130;9.218;2023-03-01T18:48:16;53.92;41.62;68.91;;
61249;Laerm;47119;49.130;9.218;2023-03-01T18:50:43;50.83;38.27;64.73;;
61249;Laerm;47119;49.130;9.218;2023-03-01T18:53:10;52.14;39.93;67.67;;
61249;Laerm;47119;49.130;9.218;2023-03-01T18:55:38;49.52;38.68;59.67;;
61249;Laerm;47119;49.130;9.218;2023-03-01T19:04:19;50.80;38.78;65.64;;
61249;Laerm;47119;49.130;9.218;2023-03-01T19:06:48;54.47;40.81;67.39;;
61249;Laerm;47119;49.130;9.218;2023-03-01T19:09:15;54.91;38.76;68.55;;
61249;Laerm;47119;49.130;9.218;2023-03-01T19:11:44;50.07;37.96;60.35;;
61249;Laerm;47119;49.130;9.218;2023-03-01T19:14:13;51.57;40.83;68.49;;
61249;Laerm;47119;49.130;9.218;2023-03-01T19:16:40;51.07;39.83;64.00;;
61249;Laerm;47119;49.130;9.218;2023-03-01T19:19:09;51.77;37.74;63.95;;
61249;Laerm;47119;49.130;9.218;2023-03-01T19:21:41;52.04;39.62;64.62;;
61249;Laerm;47119;49.130;9.218;2023-03-01T20:14:30;49.43;36.84;64.72;;
61249;Laerm;47119;49.130;9.218;2023-03-01T20:16:57;47.57;35.75;63.25;;
61249;Laerm;47119;49.130;9.218;2023-03-01T20:19:25;46.94;36.70;63.65;;
61249;Laerm;47119;49.130;9.218;2023-03-01T20:21:52;52.54;38.48;64.15;;
61249;Laerm;47119;49.130;9.218;2023-03-01T21:23:44;48.07;36.69;69.66;;
61249;Laerm;47119;49.130;9.218;2023-03-01T21:26:17;50.75;36.52;69.63;;
61249;Laerm;47119;49.130;9.218;2023-03-01T21:28:50;49.61;37.06;66.15;;
61249;Laerm;47119;49.130;9.218;2023-03-01T21:31:28;50.23;39.17;64.12;;
61249;Laerm;47119;49.130;9.218;2023-03-01T21:34:01;50.39;36.05;65.64;;
61249;Laerm;47119;49.130;9.218;2023-03-01T21:36:29;49.50;37.05;61.76;;
61249;Laerm;47119;49.130;9.218;2023-03-01T21:39:00;61.22;34.71;90.16;;
61249;Laerm;47119;49.130;9.218;2023-03-01T21:41:29;50.10;37.60;65.23;;
61249;Laerm;47119;49.130;9.218;2023-03-01T21:43:58;51.59;36.90;71.38;;
61249;Laerm;47119;49.130;9.218;2023-03-01T21:46:31;44.20;35.38;66.33;;
61249;Laerm;47119;49.130;9.218;2023-03-01T21:48:58;49.92;34.32;66.46;;
61249;Laerm;47119;49.130;9.218;2023-03-01T21:51:27;50.48;36.85;63.62;;
61249;Laerm;47119;49.130;9.218;2023-03-01T21:53:55;50.48;35.63;66.86;;
61249;Laerm;47119;49.130;9.218;2023-03-01T21:56:26;50.19;34.95;63.67;;
61249;Laerm;47119;49.130;9.218;2023-03-01T21:58:57;48.57;35.96;65.86;;
61249;Laerm;47119;49.130;9.218;2023-03-01T22:01:26;46.55;35.63;62.19;;
61249;Laerm;47119;49.130;9.218;2023-03-01T22:03:54;49.99;36.28;68.26;;
61249;Laerm;47119;49.130;9.218;2023-03-01T22:06:24;47.18;35.98;63.13;;
61249;Laerm;47119;49.130;9.218;2023-03-01T22:08:56;46.72;35.43;59.80;;
61249;Laerm;47119;49.130;9.218;2023-03-01T22:11:27;45.50;36.72;56.84;;
61249;Laerm;47119;49.130;9.218;2023-03-01T22:13:55;48.23;34.58;64.69;;
61249;Laerm;47119;49.130;9.218;2023-03-01T22:16:26;43.98;35.39;56.24;;
61249;Laerm;47119;49.130;9.218;2023-03-01T22:18:55;47.14;34.30;58.71;;
61249;Laerm;47119;49.130;9.218;2023-03-01T22:21:23;48.68;36.78;65.47;;
61249;Laerm;47119;49.130;9.218;2023-03-01T22:23:55;48.84;35.34;63.13;;
61249;Laerm;47119;49.130;9.218;2023-03-01T22:26:24;42.12;33.49;54.58;;
61249;Laerm;47119;49.130;9.218;2023-03-01T22:28:59;44.08;33.44;59.49;;
61249;Laerm;47119;49.130;9.218;2023-03-01T22:31:27;50.42;35.26;68.82;;
61249;Laerm;47119;49.130;9.218;2023-03-01T22:33:56;45.31;34.27;58.82;;
61249;Laerm;47119;49.130;9.218;2023-03-01T22:36:23;48.18;35.64;63.44;;
61249;Laerm;47119;49.130;9.218;2023-03-01T22:38:54;43.02;34.21;54.87;;
61249;Laerm;47119;49.130;9.218;2023-03-01T22:41:25;42.96;34.03;54.59;;
61249;Laerm;47119;49.130;9.218;2023-03-01T22:43:53;44.07;33.36;60.91;;
61249;Laerm;47119;49.130;9.218;2023-03-01T22:46:22;41.96;31.91;57.83;;
61249;Laerm;47119;49.130;9.218;2023-03-01T22:48:52;45.18;32.29;61.95;;
61249;Laerm;47119;49.130;9.218;2023-03-01T22:51:25;42.22;33.16;54.46;;
61249;Laerm;47119;49.130;9.218;2023-03-01T22:53:53;44.33;33.17;59.58;;
61249;Laerm;47119;49.130;9.218;2023-03-01T22:56:23;46.56;35.36;65.82;;
61249;Laerm;47119;49.130;9.218;2023-03-01T22:58:51;47.45;32.78;63.00;;
61249;Laerm;47119;49.130;9.218;2023-03-01T23:01:25;45.85;33.42;65.35;;
61249;Laerm;47119;49.130;9.218;2023-03-01T23:03:52;48.43;31.59;69.39;;
61249;Laerm;47119;49.130;9.218;2023-03-01T23:06:21;39.30;31.87;49.00;;
61249;Laerm;47119;49.130;9.218;2023-03-01T23:08:54;42.22;33.20;58.46;;
61249;Laerm;47119;49.130;9.218;2023-03-01T23:11:23;44.80;32.83;60.07;;
61249;Laerm;47119;49.130;9.218;2023-03-01T23:13:51;45.14;32.06;66.67;;
61249;Laerm;47119;49.130;9.218;2023-03-01T23:16:19;41.43;32.29;51.48;;
61249;Laerm;47119;49.130;9.218;2023-03-01T23:18:53;43.23;32.13;63.34;;
61249;Laerm;47119;49.130;9.218;2023-03-01T23:21:22;38.30;31.46;46.78;;
61249;Laerm;47119;49.130;9.218;2023-03-01T23:23:50;37.79;31.34;53.86;;
61249;Laerm;47119;49.130;9.218;2023-03-01T23:26:18;43.98;33.40;60.16;;
61249;Laerm;47119;49.130;9.218;2023-03-01T23:28:47;44.49;33.69;58.98;;
61249;Laerm;47119;49.130;9.218;2023-03-01T23:31:17;39.75;32.85;57.54;;
61249;Laerm;47119;49.130;9.218;2023-03-01T23:33:45;43.46;32.28;59.79;;
61249;Laerm;47119;49.130;9.218;2023-03-01T23:36:19;46.45;33.09;63.10;;
61249;Laerm;47119;49.130;9.218;2023-03-01T23:38:50;43.79;34.53;52.74;;
61249;Laerm;47119;49.130;9.218;2023-03-01T23:41:22;47.27;33.29;64.33;;
61249;Laerm;47119;49.130;9.218;2023-03-01T23:43:55;40.66;32.72;57.05;;
61249;Laerm;47119;49.130;9.218;2023-03-01T23:46:26;46.09;33.06;65.10;;